sensor_id;sensor_type;location;lat;lon;timestamp;temperature;humidity
20422;DHT22;10370;53.102;18.034;2022-09-02T00:01:00;8.80;99.90
20422;DHT22;10370;53.102;18.034;2022-09-02T00:06:31;8.70;99.90
20422;DHT22;10370;53.102;18.034;2022-09-02T00:11:56;8.40;99.90
20422;DHT22;10370;53.102;18.034;2022-09-02T00:17:21;8.10;99.90
20422;DHT22;10370;53.102;18.034;2022-09-02T00:22:56;7.90;99.90
20422;DHT22;10370;53.102;18.034;2022-09-02T00:28:20;7.90;99.90
20422;DHT22;10370;53.102;18.034;2022-09-02T00:33:42;8.00;99.90
20422;DHT22;10370;53.102;18.034;2022-09-02T00:39:13;8.00;99.90
20422;DHT22;10370;53.102;18.034;2022-09-02T00:44:36;8.00;99.90
20422;DHT22;10370;53.102;18.034;2022-09-02T00:50:16;8.00;99.90
20422;DHT22;10370;53.102;18.034;2022-09-02T00:55:52;8.00;99.90
20422;DHT22;10370;53.102;18.034;2022-09-02T01:01:15;7.80;99.90
20422;DHT22;10370;53.102;18.034;2022-09-02T01:06:38;7.70;99.90
20422;DHT22;10370;53.102;18.034;2022-09-02T01:12:08;7.60;99.90
20422;DHT22;10370;53.102;18.034;2022-09-02T01:17:45;7.40;99.90
20422;DHT22;10370;53.102;18.034;2022-09-02T01:23:21;7.30;99.90
20422;DHT22;10370;53.102;18.034;2022-09-02T01:56:49;7.30;99.90
20422;DHT22;10370;53.102;18.034;2022-09-02T02:02:20;7.20;99.90
20422;DHT22;10370;53.102;18.034;2022-09-02T02:07:53;7.10;99.90
20422;DHT22;10370;53.102;18.034;2022-09-02T02:13:15;7.00;99.90
20422;DHT22;10370;53.102;18.034;2022-09-02T02:18:40;6.90;99.90
20422;DHT22;10370;53.102;18.034;2022-09-02T02:24:11;6.90;99.90
20422;DHT22;10370;53.102;18.034;2022-09-02T02:29:42;6.80;99.90
20422;DHT22;10370;53.102;18.034;2022-09-02T02:35:05;6.80;99.90
20422;DHT22;10370;53.102;18.034;2022-09-02T02:40:48;6.80;99.90
20422;DHT22;10370;53.102;18.034;2022-09-02T02:46:13;6.70;99.90
20422;DHT22;10370;53.102;18.034;2022-09-02T02:51:37;6.40;99.90
20422;DHT22;10370;53.102;18.034;2022-09-02T02:56:59;6.40;99.90
20422;DHT22;10370;53.102;18.034;2022-09-02T03:02:22;6.40;99.90
20422;DHT22;10370;53.102;18.034;2022-09-02T03:07:53;6.20;99.90
20422;DHT22;10370;53.102;18.034;2022-09-02T03:26:30;6.00;99.90
20422;DHT22;10370;53.102;18.034;2022-09-02T03:32:11;6.00;99.90
20422;DHT22;10370;53.102;18.034;2022-09-02T03:37:35;5.80;99.90
20422;DHT22;10370;53.102;18.034;2022-09-02T03:42:57;5.60;99.90
20422;DHT22;10370;53.102;18.034;2022-09-02T03:48:26;5.30;99.90
20422;DHT22;10370;53.102;18.034;2022-09-02T03:53:53;5.40;99.90
20422;DHT22;10370;53.102;18.034;2022-09-02T03:59:21;5.50;99.90
20422;DHT22;10370;53.102;18.034;2022-09-02T04:05:07;5.60;99.90
20422;DHT22;10370;53.102;18.034;2022-09-02T04:16:57;5.70;99.90
20422;DHT22;10370;53.102;18.034;2022-09-02T04:22:23;5.50;99.90
20422;DHT22;10370;53.102;18.034;2022-09-02T04:28:11;5.60;99.90
20422;DHT22;10370;53.102;18.034;2022-09-02T04:33:33;5.80;99.90
20422;DHT22;10370;53.102;18.034;2022-09-02T04:38:58;6.00;99.90
20422;DHT22;10370;53.102;18.034;2022-09-02T04:44:25;6.40;99.90
20422;DHT22;10370;53.102;18.034;2022-09-02T04:49:50;7.50;99.90
20422;DHT22;10370;53.102;18.034;2022-09-02T04:55:27;10.20;99.90
20422;DHT22;10370;53.102;18.034;2022-09-02T05:00:55;13.70;99.90
20422;DHT22;10370;53.102;18.034;2022-09-02T05:06:21;15.00;99.90
20422;DHT22;10370;53.102;18.034;2022-09-02T05:11:54;15.80;99.90
20422;DHT22;10370;53.102;18.034;2022-09-02T05:17:22;16.90;99.90
20422;DHT22;10370;53.102;18.034;2022-09-02T05:22:46;17.80;99.90
20422;DHT22;10370;53.102;18.034;2022-09-02T05:28:13;19.50;99.90
20422;DHT22;10370;53.102;18.034;2022-09-02T05:33:40;20.90;98.20
20422;DHT22;10370;53.102;18.034;2022-09-02T05:39:06;21.90;94.50
20422;DHT22;10370;53.102;18.034;2022-09-02T05:44:40;22.10;93.10
20422;DHT22;10370;53.102;18.034;2022-09-02T05:50:06;20.60;94.30
20422;DHT22;10370;53.102;18.034;2022-09-02T05:55:27;16.90;99.90
20422;DHT22;10370;53.102;18.034;2022-09-02T06:00:54;14.70;99.90
20422;DHT22;10370;53.102;18.034;2022-09-02T06:06:22;13.60;99.90
20422;DHT22;10370;53.102;18.034;2022-09-02T06:11:45;13.20;99.90
20422;DHT22;10370;53.102;18.034;2022-09-02T06:17:13;13.50;99.90
20422;DHT22;10370;53.102;18.034;2022-09-02T06:22:34;13.70;99.90
20422;DHT22;10370;53.102;18.034;2022-09-02T06:27:55;13.70;99.90
20422;DHT22;10370;53.102;18.034;2022-09-02T06:33:16;13.80;99.90
20422;DHT22;10370;53.102;18.034;2022-09-02T06:38:39;13.80;99.90
20422;DHT22;10370;53.102;18.034;2022-09-02T06:44:07;13.90;99.90
20422;DHT22;10370;53.102;18.034;2022-09-02T06:49:28;13.90;99.90
20422;DHT22;10370;53.102;18.034;2022-09-02T06:54:53;14.10;99.90
20422;DHT22;10370;53.102;18.034;2022-09-02T07:00:30;14.30;99.90
20422;DHT22;10370;53.102;18.034;2022-09-02T07:06:27;14.30;99.90
20422;DHT22;10370;53.102;18.034;2022-09-02T07:11:54;14.50;99.90
20422;DHT22;10370;53.102;18.034;2022-09-02T07:17:21;14.60;99.90
20422;DHT22;10370;53.102;18.034;2022-09-02T07:22:49;14.80;99.90
20422;DHT22;10370;53.102;18.034;2022-09-02T07:28:10;15.00;99.90
20422;DHT22;10370;53.102;18.034;2022-09-02T07:33:31;15.20;99.90
20422;DHT22;10370;53.102;18.034;2022-09-02T07:38:53;15.30;99.90
20422;DHT22;10370;53.102;18.034;2022-09-02T07:44:16;15.50;99.90
20422;DHT22;10370;53.102;18.034;2022-09-02T07:49:39;15.50;99.90
20422;DHT22;10370;53.102;18.034;2022-09-02T07:55:24;15.60;99.90
20422;DHT22;10370;53.102;18.034;2022-09-02T08:00:46;15.60;99.90
20422;DHT22;10370;53.102;18.034;2022-09-02T08:06:09;15.70;99.90
20422;DHT22;10370;53.102;18.034;2022-09-02T08:11:30;15.90;99.90
20422;DHT22;10370;53.102;18.034;2022-09-02T08:16:55;16.00;99.90
20422;DHT22;10370;53.102;18.034;2022-09-02T08:22:17;15.90;99.90
20422;DHT22;10370;53.102;18.034;2022-09-02T08:27:38;16.10;99.90
20422;DHT22;10370;53.102;18.034;2022-09-02T08:32:59;16.10;99.90
20422;DHT22;10370;53.102;18.034;2022-09-02T08:38:22;16.40;99.90
20422;DHT22;10370;53.102;18.034;2022-09-02T08:43:46;16.60;99.90
20422;DHT22;10370;53.102;18.034;2022-09-02T08:49:16;16.80;99.90
20422;DHT22;10370;53.102;18.034;2022-09-02T08:55:01;16.70;99.90
20422;DHT22;10370;53.102;18.034;2022-09-02T09:24:58;17.10;99.90
20422;DHT22;10370;53.102;18.034;2022-09-02T09:30:23;17.20;99.90
20422;DHT22;10370;53.102;18.034;2022-09-02T09:35:50;17.10;99.90
20422;DHT22;10370;53.102;18.034;2022-09-02T09:41:24;17.20;99.90
20422;DHT22;10370;53.102;18.034;2022-09-02T09:46:59;17.50;99.90
20422;DHT22;10370;53.102;18.034;2022-09-02T09:52:26;17.70;99.90
20422;DHT22;10370;53.102;18.034;2022-09-02T09:57:48;18.10;99.90
20422;DHT22;10370;53.102;18.034;2022-09-02T10:03:20;17.80;99.90
20422;DHT22;10370;53.102;18.034;2022-09-02T10:08:59;17.60;99.90
20422;DHT22;10370;53.102;18.034;2022-09-02T10:14:21;17.70;99.90
20422;DHT22;10370;53.102;18.034;2022-09-02T10:31:36;18.20;99.90
20422;DHT22;10370;53.102;18.034;2022-09-02T10:37:10;18.40;99.90
20422;DHT22;10370;53.102;18.034;2022-09-02T11:00:05;19.00;99.90
20422;DHT22;10370;53.102;18.034;2022-09-02T11:05:37;19.30;99.90
20422;DHT22;10370;53.102;18.034;2022-09-02T11:11:26;19.30;99.90
20422;DHT22;10370;53.102;18.034;2022-09-02T11:17:15;19.20;99.90
20422;DHT22;10370;53.102;18.034;2022-09-02T11:39:47;18.40;99.90
20422;DHT22;10370;53.102;18.034;2022-09-02T11:56:57;18.90;99.90
20422;DHT22;10370;53.102;18.034;2022-09-02T12:02:57;19.10;99.90
20422;DHT22;10370;53.102;18.034;2022-09-02T12:19:26;18.70;95.60
20422;DHT22;10370;53.102;18.034;2022-09-02T12:24:58;18.90;98.90
20422;DHT22;10370;53.102;18.034;2022-09-02T12:58:38;20.10;91.80
20422;DHT22;10370;53.102;18.034;2022-09-02T13:27:17;19.20;96.40
20422;DHT22;10370;53.102;18.034;2022-09-02T13:32:55;18.90;97.60
20422;DHT22;10370;53.102;18.034;2022-09-02T13:38:25;19.00;97.30
20422;DHT22;10370;53.102;18.034;2022-09-02T13:44:07;19.00;96.60
20422;DHT22;10370;53.102;18.034;2022-09-02T13:49:39;19.40;97.10
20422;DHT22;10370;53.102;18.034;2022-09-02T13:55:15;19.60;95.40
20422;DHT22;10370;53.102;18.034;2022-09-02T14:00:39;19.10;94.20
20422;DHT22;10370;53.102;18.034;2022-09-02T14:06:02;19.00;94.40
20422;DHT22;10370;53.102;18.034;2022-09-02T14:11:28;18.90;94.90
20422;DHT22;10370;53.102;18.034;2022-09-02T14:17:16;18.90;95.10
20422;DHT22;10370;53.102;18.034;2022-09-02T14:22:37;19.00;95.00
20422;DHT22;10370;53.102;18.034;2022-09-02T14:27:59;18.90;94.50
20422;DHT22;10370;53.102;18.034;2022-09-02T14:33:23;18.70;94.20
20422;DHT22;10370;53.102;18.034;2022-09-02T14:44:28;18.60;95.50
20422;DHT22;10370;53.102;18.034;2022-09-02T14:49:54;18.60;96.30
20422;DHT22;10370;53.102;18.034;2022-09-02T14:55:40;19.00;96.80
20422;DHT22;10370;53.102;18.034;2022-09-02T15:01:03;19.30;96.50
20422;DHT22;10370;53.102;18.034;2022-09-02T15:06:28;19.30;96.90
20422;DHT22;10370;53.102;18.034;2022-09-02T15:11:52;19.30;97.50
20422;DHT22;10370;53.102;18.034;2022-09-02T15:17:14;18.90;98.00
20422;DHT22;10370;53.102;18.034;2022-09-02T15:22:35;18.60;98.50
20422;DHT22;10370;53.102;18.034;2022-09-02T15:27:56;18.50;98.60
20422;DHT22;10370;53.102;18.034;2022-09-02T15:33:18;18.40;98.20
20422;DHT22;10370;53.102;18.034;2022-09-02T15:38:39;18.40;98.30
20422;DHT22;10370;53.102;18.034;2022-09-02T15:44:03;18.40;99.80
20422;DHT22;10370;53.102;18.034;2022-09-02T15:49:27;18.70;99.90
20422;DHT22;10370;53.102;18.034;2022-09-02T15:54:47;18.70;99.90
20422;DHT22;10370;53.102;18.034;2022-09-02T16:00:09;18.70;99.90
20422;DHT22;10370;53.102;18.034;2022-09-02T16:05:30;18.60;99.90
20422;DHT22;10370;53.102;18.034;2022-09-02T16:10:52;18.50;99.90
20422;DHT22;10370;53.102;18.034;2022-09-02T16:16:14;18.60;99.90
20422;DHT22;10370;53.102;18.034;2022-09-02T16:21:38;18.50;99.90
20422;DHT22;10370;53.102;18.034;2022-09-02T16:27:00;18.30;99.90
20422;DHT22;10370;53.102;18.034;2022-09-02T16:32:24;18.20;99.90
20422;DHT22;10370;53.102;18.034;2022-09-02T16:37:47;18.10;99.90
20422;DHT22;10370;53.102;18.034;2022-09-02T16:43:09;18.00;99.90
20422;DHT22;10370;53.102;18.034;2022-09-02T16:48:32;18.00;99.90
20422;DHT22;10370;53.102;18.034;2022-09-02T16:53:54;17.90;99.90
20422;DHT22;10370;53.102;18.034;2022-09-02T16:59:16;17.90;99.90
20422;DHT22;10370;53.102;18.034;2022-09-02T17:04:39;17.80;99.90
20422;DHT22;10370;53.102;18.034;2022-09-02T17:44:18;16.80;99.90
20422;DHT22;10370;53.102;18.034;2022-09-02T18:13:47;16.00;99.90
20422;DHT22;10370;53.102;18.034;2022-09-02T18:25:22;15.70;99.90
20422;DHT22;10370;53.102;18.034;2022-09-02T18:37:00;15.40;99.90
20422;DHT22;10370;53.102;18.034;2022-09-02T18:48:21;15.00;99.90
20422;DHT22;10370;53.102;18.034;2022-09-02T18:53:47;14.90;99.90
20422;DHT22;10370;53.102;18.034;2022-09-02T18:59:11;14.80;99.90
20422;DHT22;10370;53.102;18.034;2022-09-02T19:04:33;14.60;99.90
20422;DHT22;10370;53.102;18.034;2022-09-02T19:09:58;14.50;99.90
20422;DHT22;10370;53.102;18.034;2022-09-02T19:15:20;14.30;99.90
20422;DHT22;10370;53.102;18.034;2022-09-02T19:20:43;14.30;99.90
20422;DHT22;10370;53.102;18.034;2022-09-02T19:26:04;14.20;99.90
20422;DHT22;10370;53.102;18.034;2022-09-02T19:31:27;14.10;99.90
20422;DHT22;10370;53.102;18.034;2022-09-02T19:36:50;14.00;99.90
20422;DHT22;10370;53.102;18.034;2022-09-02T19:42:13;13.90;99.90
20422;DHT22;10370;53.102;18.034;2022-09-02T19:47:34;13.80;99.90
20422;DHT22;10370;53.102;18.034;2022-09-02T19:53:21;13.70;99.90
20422;DHT22;10370;53.102;18.034;2022-09-02T19:58:45;13.60;99.90
20422;DHT22;10370;53.102;18.034;2022-09-02T20:04:06;13.50;99.90
20422;DHT22;10370;53.102;18.034;2022-09-02T20:35:49;12.80;99.90
20422;DHT22;10370;53.102;18.034;2022-09-02T20:41:28;12.70;99.90
20422;DHT22;10370;53.102;18.034;2022-09-02T20:47:13;12.70;99.90
20422;DHT22;10370;53.102;18.034;2022-09-02T20:53:03;12.70;99.90
20422;DHT22;10370;53.102;18.034;2022-09-02T20:58:46;12.80;99.90
20422;DHT22;10370;53.102;18.034;2022-09-02T21:09:48;13.00;99.90
20422;DHT22;10370;53.102;18.034;2022-09-02T21:15:41;13.00;99.90
20422;DHT22;10370;53.102;18.034;2022-09-02T21:21:28;13.10;99.90
20422;DHT22;10370;53.102;18.034;2022-09-02T21:27:00;13.20;99.90
20422;DHT22;10370;53.102;18.034;2022-09-02T21:32:57;13.20;99.90
20422;DHT22;10370;53.102;18.034;2022-09-02T21:38:28;13.10;99.90
20422;DHT22;10370;53.102;18.034;2022-09-02T21:55:18;13.00;99.90
20422;DHT22;10370;53.102;18.034;2022-09-02T22:01:08;13.00;99.90
20422;DHT22;10370;53.102;18.034;2022-09-02T22:06:41;13.00;99.90
20422;DHT22;10370;53.102;18.034;2022-09-02T22:12:06;13.00;99.90
20422;DHT22;10370;53.102;18.034;2022-09-02T22:17:50;13.00;99.90
20422;DHT22;10370;53.102;18.034;2022-09-02T22:23:23;12.90;99.90
20422;DHT22;10370;53.102;18.034;2022-09-02T22:28:50;12.90;99.90
20422;DHT22;10370;53.102;18.034;2022-09-02T22:34:13;12.90;99.90
20422;DHT22;10370;53.102;18.034;2022-09-02T22:39:50;12.80;99.90
20422;DHT22;10370;53.102;18.034;2022-09-02T22:45:27;12.70;99.90
20422;DHT22;10370;53.102;18.034;2022-09-02T22:51:15;12.70;99.90
20422;DHT22;10370;53.102;18.034;2022-09-02T22:57:18;12.70;99.90
20422;DHT22;10370;53.102;18.034;2022-09-02T23:08:17;12.50;99.90
20422;DHT22;10370;53.102;18.034;2022-09-02T23:13:45;12.50;99.90
20422;DHT22;10370;53.102;18.034;2022-09-02T23:19:16;12.50;99.90
20422;DHT22;10370;53.102;18.034;2022-09-02T23:30:05;12.30;99.90
20422;DHT22;10370;53.102;18.034;2022-09-02T23:35:42;12.20;99.90
20422;DHT22;10370;53.102;18.034;2022-09-02T23:41:12;12.20;99.90
20422;DHT22;10370;53.102;18.034;2022-09-02T23:47:19;12.00;99.90
20422;DHT22;10370;53.102;18.034;2022-09-02T23:53:07;12.00;99.90
